Marcos Paz, Argentina
Current Conditions -  °F | °C
As of 9:00 AM on Friday 21 Nov 2014 (Local Time) from SANT Reporting Station
Drizzle Drizzle  
Wind Chill: 63°   Ceiling: 400
Heat Index: 63°   Visibility: 1.2mi
Dew Point: 61°   Wind: 14mph
Humidity: 94%   Direction: 140°SE
Pressure: 30.03"   Gusts: NA
Location:  26.82°S, 65.28°W
Report Text: SANT 211200Z 14012KT 2000 DZ BR BKN004 OVC03017/16 Q1017
Loading
Personal Weather Stations






























Interactive Weather Map New forecast layout! Learn more

10-Day Weather Forecast

Advertisements
Track Severe Weather on mobile